Terminal Aerodrome Forecast
Issued by NWS

Home | Current Version | Previous Version | Text Only | Print | Product List | Glossary On
Versions: 1 2 3 4 5 6 7 8 9 10 11 12 13 14 15 16
000
FTUS45 KTFX 241100
TAFBZN
TAF
KBZN 241129Z 2412/2512 25006KT P6SM SCT060 OVC080
     FM241900 22015G25KT P6SM VCSH SCT035 OVC050
     FM250200 29006KT P6SM BKN090=

USA.gov is the U.S. government's official web portal to all federal, state and local government web resources and services.